createdAt,value
2019-06-20T00:00:10.543Z,4.97
2019-06-20T00:02:40.481Z,5.07
2019-06-20T00:05:10.664Z,4.20
2019-06-20T00:07:40.550Z,4.90
2019-06-20T00:10:11.552Z,4.57
2019-06-20T00:12:41.403Z,3.90
2019-06-20T00:15:11.373Z,4.73
2019-06-20T00:17:41.405Z,4.90
2019-06-20T00:20:11.494Z,4.47
2019-06-20T00:22:41.369Z,3.97
2019-06-20T00:25:11.499Z,4.43
2019-06-20T00:27:41.392Z,5.07
2019-06-20T00:30:11.801Z,7.37
2019-06-20T00:32:41.729Z,4.47
2019-06-20T00:35:12.450Z,4.00
2019-06-20T00:37:42.369Z,4.80
2019-06-20T00:40:12.732Z,4.80
2019-06-20T00:42:42.655Z,5.77
2019-06-20T00:45:12.892Z,5.27
2019-06-20T00:47:42.857Z,4.77
2019-06-20T00:50:13.137Z,4.47
2019-06-20T00:52:43.068Z,4.57
2019-06-20T00:55:13.605Z,4.13
2019-06-20T00:57:43.500Z,4.40
2019-06-20T01:00:13.774Z,4.43
2019-06-20T01:02:43.727Z,4.40
2019-06-20T01:05:14.811Z,4.57
2019-06-20T01:07:44.728Z,5.03
2019-06-20T01:10:15.911Z,4.90
2019-06-20T01:12:46.047Z,4.03
2019-06-20T01:15:17.500Z,4.47
2019-06-20T01:17:47.506Z,4.90
2019-06-20T01:20:18.109Z,4.07
2019-06-20T01:22:47.996Z,4.10
2019-06-20T01:25:27.544Z,4.43
2019-06-20T01:27:57.439Z,4.43
2019-06-20T01:30:27.417Z,4.37
2019-06-20T01:32:57.325Z,4.13
2019-06-20T01:35:27.283Z,4.63
2019-06-20T01:37:57.133Z,4.40
2019-06-20T01:40:27.140Z,4.03
2019-06-20T01:42:57.171Z,3.80
2019-06-20T01:45:27.084Z,4.10
2019-06-20T01:47:56.990Z,3.83
2019-06-20T01:50:26.887Z,4.83
2019-06-20T01:52:56.787Z,4.50
2019-06-20T01:55:26.712Z,3.93
2019-06-20T01:57:56.570Z,4.03
2019-06-20T02:00:54.510Z,4.73
2019-06-20T02:03:24.589Z,4.30
2019-06-20T02:05:55.649Z,4.70
2019-06-20T02:08:25.548Z,4.77
2019-06-20T02:10:55.393Z,4.27
2019-06-20T02:13:25.291Z,3.83
2019-06-20T02:15:56.111Z,4.20
2019-06-20T02:18:25.975Z,4.27
2019-06-20T02:20:57.702Z,4.33
2019-06-20T02:23:27.833Z,4.63
2019-06-20T02:25:57.692Z,4.37
2019-06-20T02:28:27.563Z,4.10
2019-06-20T02:30:57.474Z,4.47
2019-06-20T02:33:27.364Z,4.57
2019-06-20T02:35:57.213Z,4.93
2019-06-20T02:38:27.140Z,4.67
2019-06-20T02:40:57.010Z,4.00
2019-06-20T02:43:26.881Z,4.20
2019-06-20T02:45:56.865Z,4.93
2019-06-20T02:48:26.728Z,4.30
2019-06-20T02:50:56.787Z,4.73
2019-06-20T02:53:26.714Z,4.20
2019-06-20T02:55:56.726Z,5.10
2019-06-20T02:58:26.565Z,4.80
2019-06-20T03:00:58.524Z,4.27
2019-06-20T03:03:29.472Z,4.70
2019-06-20T03:05:59.747Z,4.47
2019-06-20T03:08:29.948Z,4.60
2019-06-20T03:10:59.817Z,4.23
2019-06-20T03:13:29.969Z,5.27
2019-06-20T03:15:59.894Z,4.73
2019-06-20T03:18:30.770Z,4.57
2019-06-20T03:21:00.652Z,4.70
2019-06-20T03:23:30.680Z,4.87
2019-06-20T03:26:00.554Z,4.40
2019-06-20T03:28:30.492Z,4.63
2019-06-20T03:31:01.686Z,4.47
2019-06-20T03:33:31.515Z,4.27
2019-06-20T03:36:01.372Z,4.37
2019-06-20T03:38:31.483Z,4.50
2019-06-20T03:41:01.338Z,4.43
2019-06-20T03:43:31.179Z,4.77
2019-06-20T03:46:01.105Z,5.13
2019-06-20T03:48:30.958Z,4.70
2019-06-20T03:51:01.831Z,5.40
2019-06-20T03:53:31.749Z,4.87
2019-06-20T03:56:01.704Z,4.90
2019-06-20T03:58:32.610Z,4.40
2019-06-20T04:01:02.532Z,4.83
2019-06-20T04:03:32.404Z,5.03
2019-06-20T04:06:02.286Z,4.17
2019-06-20T04:08:32.197Z,5.10
2019-06-20T04:11:02.065Z,4.30
2019-06-20T04:13:31.917Z,5.13
2019-06-20T04:16:01.815Z,4.70
2019-06-20T04:18:31.674Z,5.17
2019-06-20T04:21:02.495Z,6.13
2019-06-20T04:23:32.410Z,6.20
2019-06-20T04:26:06.684Z,5.87
2019-06-20T04:28:36.676Z,6.87
2019-06-20T04:31:06.530Z,7.87
2019-06-20T04:33:36.381Z,7.23
2019-06-20T04:36:06.514Z,7.30
2019-06-20T04:38:36.375Z,6.30
2019-06-20T04:41:06.249Z,7.30
2019-06-20T04:43:36.132Z,7.20
2019-06-20T04:46:14.729Z,7.67
2019-06-20T04:48:44.664Z,7.43
2019-06-20T04:51:14.514Z,9.07
2019-06-20T04:53:56.080Z,10.50
2019-06-20T04:56:26.038Z,11.60
2019-06-20T04:58:55.927Z,11.93
2019-06-20T05:01:25.859Z,11.97
2019-06-20T05:03:55.728Z,11.93
2019-06-20T05:06:25.868Z,12.03
2019-06-20T05:08:55.810Z,11.40
2019-06-20T05:11:25.886Z,10.87
2019-06-20T05:13:55.742Z,11.17
2019-06-20T05:16:25.823Z,12.07
2019-06-20T05:18:55.699Z,11.20
2019-06-20T05:21:26.566Z,10.50
2019-06-20T05:23:57.835Z,11.10
2019-06-20T05:26:27.706Z,10.33
2019-06-20T05:28:57.611Z,12.77
2019-06-20T05:31:30.108Z,11.67
2019-06-20T05:33:59.963Z,11.60
2019-06-20T05:36:29.855Z,12.43
2019-06-20T05:39:00.056Z,12.20
2019-06-20T05:41:30.286Z,10.17
2019-06-20T05:44:00.272Z,11.03
2019-06-20T05:46:30.507Z,10.32
2019-06-20T05:49:01.649Z,10.48
2019-06-20T05:51:31.599Z,10.45
2019-06-20T05:54:01.677Z,9.55
2019-06-20T05:56:32.185Z,9.25
2019-06-20T05:59:02.145Z,9.78
2019-06-20T06:01:32.075Z,9.90
2019-06-20T06:04:01.979Z,10.88
2019-06-20T06:06:38.826Z,10.70
2019-06-20T06:09:09.642Z,9.05
2019-06-20T06:11:39.749Z,8.38
2019-06-20T06:14:09.627Z,9.43
2019-06-20T06:16:39.649Z,8.40
2019-06-20T06:19:09.534Z,7.90
2019-06-20T06:21:39.355Z,7.25
2019-06-20T06:24:09.546Z,7.87
2019-06-20T06:26:40.194Z,7.47
2019-06-20T06:29:10.061Z,7.80
2019-06-20T06:31:39.999Z,6.25
2019-06-20T06:34:09.915Z,5.83
2019-06-20T06:36:40.049Z,4.65
2019-06-20T06:39:10.691Z,5.17
2019-06-20T06:41:40.771Z,5.30
2019-06-20T06:44:10.713Z,5.75
2019-06-20T06:46:47.198Z,5.55
2019-06-20T06:49:12.151Z,5.40
2019-06-20T06:51:42.130Z,5.08
2019-06-20T06:54:12.078Z,5.47
2019-06-20T06:56:42.170Z,5.55
2019-06-20T06:59:12.143Z,6.55
2019-06-20T07:01:42.078Z,6.15
2019-06-20T07:04:12.026Z,5.55
2019-06-20T07:06:41.921Z,6.15
2019-06-20T07:09:11.973Z,6.85
2019-06-20T07:11:41.918Z,5.80
2019-06-20T07:14:11.904Z,5.72
2019-06-20T07:16:42.008Z,5.35
2019-06-20T07:19:13.358Z,4.53
2019-06-20T07:21:44.598Z,4.97
2019-06-20T07:24:14.899Z,3.72
2019-06-20T07:26:46.797Z,3.92
2019-06-20T07:29:16.895Z,4.28
2019-06-20T07:31:46.953Z,4.05
2019-06-20T07:34:16.832Z,4.58
2019-06-20T07:36:46.683Z,4.65
2019-06-20T07:39:16.699Z,4.08
2019-06-20T07:41:46.624Z,4.33
2019-06-20T07:44:16.485Z,4.58
2019-06-20T07:46:46.503Z,4.50
2019-06-20T07:49:16.426Z,3.33
2019-06-20T07:51:46.279Z,3.65
2019-06-20T07:54:16.343Z,3.87
2019-06-20T07:56:46.345Z,4.12
2019-06-20T07:59:16.234Z,3.52
2019-06-20T08:01:46.229Z,3.75
2019-06-20T08:04:17.077Z,4.15
2019-06-20T08:06:46.963Z,3.72
2019-06-20T08:09:16.918Z,3.75
2019-06-20T08:11:46.931Z,3.92
2019-06-20T08:14:17.454Z,3.58
2019-06-20T08:16:47.374Z,3.72
2019-06-20T08:19:17.254Z,4.10
2019-06-20T08:21:47.129Z,3.40
2019-06-20T08:24:17.038Z,3.20
2019-06-20T08:26:46.903Z,3.27
2019-06-20T08:29:21.137Z,3.30
2019-06-20T08:31:49.635Z,3.02
2019-06-20T08:34:19.617Z,3.75
2019-06-20T08:36:49.627Z,2.85
2019-06-20T08:39:21.114Z,3.60
2019-06-20T08:41:51.053Z,3.45
2019-06-20T08:44:21.874Z,3.00
2019-06-20T08:46:52.883Z,3.87
2019-06-20T08:49:23.908Z,3.98
2019-06-20T08:51:55.624Z,3.72
2019-06-20T08:54:25.434Z,3.83
2019-06-20T08:56:56.103Z,3.58
2019-06-20T08:59:26.863Z,3.40
2019-06-20T09:01:58.756Z,3.08
2019-06-20T09:04:30.942Z,2.50
2019-06-20T09:09:32.795Z,2.85
2019-06-20T09:12:02.949Z,3.55
2019-06-20T09:14:33.702Z,3.70
2019-06-20T09:17:04.187Z,2.83
2019-06-20T09:19:35.051Z,3.85
2019-06-20T09:22:06.660Z,3.25
2019-06-20T09:24:47.123Z,4.42
2019-06-20T09:27:19.147Z,3.47
2019-06-20T09:29:53.258Z,3.35
2019-06-20T09:32:30.953Z,4.22
2019-06-20T09:35:03.156Z,3.27
2019-06-20T09:37:33.213Z,2.87
2019-06-20T09:40:03.787Z,3.35
2019-06-20T09:42:36.786Z,3.30
2019-06-20T09:45:06.733Z,2.92
2019-06-20T09:47:37.716Z,3.15
2019-06-20T09:50:11.124Z,3.27
2019-06-20T09:52:41.273Z,4.28
2019-06-20T09:55:12.386Z,3.40
2019-06-20T09:57:44.794Z,3.42
2019-06-20T10:00:16.019Z,3.37
2019-06-20T10:02:48.282Z,4.08
2019-06-20T10:05:23.020Z,3.10
2019-06-20T10:08:11.979Z,3.40
2019-06-20T10:10:45.469Z,3.33
2019-06-20T10:13:16.844Z,3.60
2019-06-20T10:15:49.111Z,3.12
2019-06-20T10:18:19.556Z,3.65
2019-06-20T10:20:51.165Z,3.12
2019-06-20T10:23:21.334Z,2.92
2019-06-20T10:25:51.704Z,3.47
2019-06-20T10:28:21.809Z,3.37
2019-06-20T10:30:53.358Z,3.45
2019-06-20T10:33:24.368Z,2.95
2019-06-20T10:35:54.397Z,2.98
2019-06-20T10:38:24.358Z,3.40
2019-06-20T10:40:59.461Z,2.50
2019-06-20T10:43:27.362Z,2.92
2019-06-20T10:46:00.541Z,2.85
2019-06-20T10:48:33.825Z,2.58
2019-06-20T10:51:22.257Z,2.83
2019-06-20T10:53:53.394Z,3.77
2019-06-20T10:56:26.768Z,2.92
2019-06-20T10:58:59.964Z,2.45
2019-06-20T11:01:29.928Z,3.25
2019-06-20T11:03:59.856Z,3.12
2019-06-20T11:06:31.544Z,2.70
2019-06-20T11:09:02.746Z,2.52
2019-06-20T11:11:33.107Z,3.00
2019-06-20T11:14:05.562Z,3.10
2019-06-20T11:16:35.753Z,2.98
2019-06-20T11:19:06.991Z,3.45
2019-06-20T11:21:39.519Z,3.30
2019-06-20T11:24:11.603Z,2.83
2019-06-20T11:26:41.510Z,2.95
2019-06-20T11:29:12.106Z,3.22
2019-06-20T11:31:45.944Z,2.85
2019-06-20T11:34:14.732Z,2.45
2019-06-20T11:36:49.995Z,2.80
2019-06-20T11:39:20.775Z,2.40
2019-06-20T11:41:52.107Z,2.60
2019-06-20T11:44:22.152Z,2.58
2019-06-20T11:46:53.859Z,2.65
2019-06-20T11:49:29.762Z,2.70
2019-06-20T11:52:00.402Z,2.60
2019-06-20T11:54:31.883Z,2.60
2019-06-20T11:57:13.069Z,2.62
2019-06-20T11:59:54.686Z,2.50
2019-06-20T12:02:28.227Z,2.87
2019-06-20T12:05:00.354Z,3.22
2019-06-20T12:07:33.400Z,2.35
2019-06-20T12:10:06.976Z,2.52
2019-06-20T12:12:40.996Z,2.50
2019-06-20T12:15:17.371Z,2.30
2019-06-20T12:18:05.026Z,2.62
2019-06-20T12:20:44.677Z,2.42
2019-06-20T12:23:28.417Z,2.30
2019-06-20T12:26:06.010Z,2.58
2019-06-20T12:28:59.059Z,2.52
2019-06-20T12:31:33.556Z,2.40
2019-06-20T12:34:08.136Z,2.15
2019-06-20T12:36:42.553Z,2.20
2019-06-20T12:39:28.827Z,2.65
2019-06-20T12:41:58.808Z,2.37
2019-06-20T12:44:28.664Z,2.52
2019-06-20T12:46:58.528Z,2.50
2019-06-20T12:49:28.467Z,2.40
2019-06-20T12:51:58.313Z,2.55
2019-06-20T12:54:30.180Z,2.40
2019-06-20T12:56:59.732Z,2.20
2019-06-20T12:59:29.593Z,2.58
2019-06-20T13:01:59.482Z,2.50
2019-06-20T13:04:30.575Z,2.50
2019-06-20T13:07:00.572Z,2.75
2019-06-20T13:09:30.896Z,2.85
2019-06-20T13:12:00.823Z,2.72
2019-06-20T13:14:30.694Z,2.35
2019-06-20T13:17:01.177Z,2.27
2019-06-20T13:19:31.201Z,2.67
2019-06-20T13:22:01.076Z,2.52
2019-06-20T13:24:30.950Z,2.55
2019-06-20T13:27:00.868Z,2.65
2019-06-20T13:29:30.715Z,2.62
2019-06-20T13:32:04.338Z,2.55
2019-06-20T13:34:32.146Z,2.80
2019-06-20T13:37:02.008Z,2.62
2019-06-20T13:39:40.356Z,3.27
2019-06-20T13:42:11.064Z,2.70
2019-06-20T13:44:41.459Z,2.55
2019-06-20T13:47:12.518Z,2.60
2019-06-20T13:49:43.221Z,2.70
2019-06-20T13:52:13.305Z,3.00
2019-06-20T13:54:44.636Z,3.12
2019-06-20T13:57:14.755Z,2.80
2019-06-20T13:59:45.674Z,2.92
2019-06-20T14:02:16.877Z,2.80
2019-06-20T14:04:46.790Z,2.67
2019-06-20T14:07:18.116Z,2.80
2019-06-20T14:09:48.760Z,2.85
2019-06-20T14:12:19.319Z,2.42
2019-06-20T14:14:50.309Z,2.72
2019-06-20T14:17:20.294Z,2.95
2019-06-20T14:19:50.922Z,2.42
2019-06-20T14:22:22.587Z,2.27
2019-06-20T14:24:55.494Z,2.75
2019-06-20T14:27:27.706Z,2.70
2019-06-20T14:30:02.069Z,2.80
2019-06-20T14:32:33.483Z,2.62
2019-06-20T14:35:04.585Z,2.87
2019-06-20T14:37:34.580Z,3.33
2019-06-20T14:40:06.067Z,2.30
2019-06-20T14:42:36.086Z,2.75
2019-06-20T14:45:08.338Z,3.15
2019-06-20T14:47:39.264Z,2.27
2019-06-20T14:50:13.437Z,3.05
2019-06-20T14:52:48.234Z,2.90
2019-06-20T14:55:19.506Z,2.77
2019-06-20T14:57:54.763Z,2.15
2019-06-20T15:00:27.004Z,2.10
2019-06-20T15:03:01.239Z,2.40
2019-06-20T15:05:34.740Z,2.45
2019-06-20T15:08:04.527Z,2.30
2019-06-20T15:10:35.034Z,2.12
2019-06-20T15:13:06.015Z,2.00
2019-06-20T15:15:39.097Z,2.22
2019-06-20T15:18:10.961Z,2.50
2019-06-20T15:20:41.040Z,2.20
2019-06-20T15:23:12.950Z,2.40
2019-06-20T15:25:43.707Z,1.87
2019-06-20T15:28:13.598Z,1.60
2019-06-20T15:30:43.531Z,2.27
2019-06-20T15:33:13.402Z,1.75
2019-06-20T15:35:43.275Z,2.47
2019-06-20T15:38:13.190Z,2.42
2019-06-20T15:40:43.544Z,2.20
2019-06-20T15:43:13.508Z,2.58
2019-06-20T15:45:43.408Z,2.08
2019-06-20T15:48:13.278Z,2.45
2019-06-20T15:50:43.257Z,1.90
2019-06-20T15:53:13.185Z,2.55
2019-06-20T15:55:43.035Z,2.33
2019-06-20T15:58:14.524Z,2.10
2019-06-20T16:00:44.457Z,2.45
2019-06-20T16:03:14.776Z,2.20
2019-06-20T16:05:45.558Z,1.82
2019-06-20T16:08:15.767Z,1.95
2019-06-20T16:10:46.294Z,2.40
2019-06-20T16:13:16.190Z,2.20
2019-06-20T16:15:46.175Z,2.42
2019-06-20T16:18:16.028Z,2.05
2019-06-20T16:20:46.207Z,2.00
2019-06-20T16:23:16.120Z,2.35
2019-06-20T16:25:45.969Z,1.80
2019-06-20T16:28:15.841Z,2.00
2019-06-20T16:30:45.789Z,2.47
2019-06-20T16:33:24.634Z,2.33
2019-06-20T16:35:47.194Z,1.92
2019-06-20T16:38:23.463Z,1.95
2019-06-20T16:40:53.890Z,1.90
2019-06-20T16:43:23.851Z,2.10
2019-06-20T16:45:53.771Z,2.15
2019-06-20T16:48:35.109Z,2.10
2019-06-20T16:51:05.332Z,2.40
2019-06-20T16:53:35.216Z,1.90
2019-06-20T16:56:05.281Z,2.08
2019-06-20T16:58:35.284Z,2.02
2019-06-20T17:01:05.263Z,2.25
2019-06-20T17:03:41.806Z,2.02
2019-06-20T17:06:06.729Z,2.08
2019-06-20T17:08:36.591Z,2.25
2019-06-20T17:11:06.976Z,2.15
2019-06-20T17:13:36.899Z,2.37
2019-06-20T17:16:06.754Z,2.15
2019-06-20T17:18:37.014Z,2.30
2019-06-20T17:21:09.954Z,2.60
2019-06-20T17:23:39.639Z,2.00
2019-06-20T17:26:09.491Z,2.12
2019-06-20T17:28:43.688Z,4.20
2019-06-20T17:31:16.061Z,1.90
2019-06-20T17:33:57.150Z,1.85
2019-06-20T17:36:18.813Z,2.40
2019-06-20T17:38:49.013Z,2.30
2019-06-20T17:41:19.485Z,2.08
2019-06-20T17:43:49.427Z,2.40
2019-06-20T17:46:20.260Z,2.17
2019-06-20T17:48:50.764Z,2.33
2019-06-20T17:51:23.597Z,1.87
2019-06-20T17:53:53.449Z,1.95
2019-06-20T17:56:23.323Z,1.92
2019-06-20T17:58:53.198Z,1.98
2019-06-20T18:01:23.095Z,2.35
2019-06-20T18:03:52.975Z,1.80
2019-06-20T18:06:22.899Z,2.15
2019-06-20T18:08:52.768Z,2.47
2019-06-20T18:11:22.638Z,2.55
2019-06-20T18:13:52.557Z,2.42
2019-06-20T18:16:25.309Z,2.58
2019-06-20T18:18:53.956Z,2.08
2019-06-20T18:21:23.965Z,2.30
2019-06-20T18:23:55.582Z,2.47
2019-06-20T18:26:28.673Z,1.92
2019-06-20T18:29:00.819Z,2.30
2019-06-20T18:31:32.579Z,2.15
2019-06-20T18:34:05.291Z,2.87
2019-06-20T18:36:43.350Z,2.75
2019-06-20T18:39:12.694Z,2.83
2019-06-20T18:41:47.342Z,2.40
2019-06-20T18:44:16.847Z,4.12
2019-06-20T18:46:46.730Z,2.10
2019-06-20T18:49:16.714Z,4.15
2019-06-20T18:51:46.682Z,2.95
2019-06-20T18:54:16.669Z,3.62
2019-06-20T18:56:46.554Z,2.55
2019-06-20T18:59:16.609Z,2.12
2019-06-20T19:01:46.625Z,2.35
2019-06-20T19:04:16.639Z,2.37
2019-06-20T19:06:46.507Z,2.00
2019-06-20T19:09:16.364Z,2.35
2019-06-20T19:11:46.281Z,2.55
2019-06-20T19:14:16.184Z,2.27
2019-06-20T19:16:46.108Z,2.17
2019-06-20T19:19:16.424Z,2.10
2019-06-20T19:21:46.702Z,2.15
2019-06-20T19:24:16.963Z,2.25
2019-06-20T19:26:46.893Z,3.08
2019-06-20T19:29:16.873Z,2.72
2019-06-20T19:31:46.733Z,2.22
2019-06-20T19:34:16.694Z,2.15
2019-06-20T19:36:46.755Z,2.15
2019-06-20T19:39:16.957Z,2.30
2019-06-20T19:41:46.902Z,2.58
2019-06-20T19:44:18.338Z,2.30
2019-06-20T19:46:48.291Z,2.10
2019-06-20T19:49:18.339Z,2.30
2019-06-20T19:51:49.264Z,2.50
2019-06-20T19:54:19.124Z,2.40
2019-06-20T19:56:49.153Z,2.35
2019-06-20T19:59:19.110Z,2.52
2019-06-20T20:01:48.976Z,2.33
2019-06-20T20:04:20.021Z,2.27
2019-06-20T20:06:49.929Z,2.47
2019-06-20T20:09:19.832Z,2.85
2019-06-20T20:11:49.931Z,2.45
2019-06-20T20:14:19.842Z,2.77
2019-06-20T20:16:49.740Z,2.90
2019-06-20T20:19:19.698Z,2.85
2019-06-20T20:21:49.811Z,3.40
2019-06-20T20:24:19.666Z,2.75
2019-06-20T20:26:49.619Z,2.20
2019-06-20T20:29:19.481Z,2.70
2019-06-20T20:31:49.442Z,2.30
2019-06-20T20:34:19.347Z,2.45
2019-06-20T20:36:49.192Z,2.60
2019-06-20T20:39:19.043Z,2.90
2019-06-20T20:41:48.987Z,2.67
2019-06-20T20:44:18.843Z,2.67
2019-06-20T20:46:48.731Z,2.65
2019-06-20T20:49:18.679Z,2.50
2019-06-20T20:51:48.549Z,2.47
2019-06-20T20:54:19.325Z,2.83
2019-06-20T20:56:49.352Z,2.67
2019-06-20T20:59:19.212Z,2.52
2019-06-20T21:01:49.608Z,3.12
2019-06-20T21:04:19.604Z,2.60
2019-06-20T21:06:49.475Z,3.05
2019-06-20T21:09:19.433Z,2.95
2019-06-20T21:11:49.542Z,2.52
2019-06-20T21:14:19.513Z,3.10
2019-06-20T21:16:49.441Z,2.55
2019-06-20T21:19:19.390Z,3.42
2019-06-20T21:21:49.255Z,3.30
2019-06-20T21:24:19.190Z,3.00
2019-06-20T21:26:50.078Z,2.92
2019-06-20T21:29:20.284Z,2.62
2019-06-20T21:31:50.130Z,2.67
2019-06-20T21:34:20.089Z,2.70
2019-06-20T21:36:49.963Z,2.50
2019-06-20T21:39:19.828Z,2.80
2019-06-20T21:41:49.756Z,3.00
2019-06-20T21:44:19.602Z,3.02
2019-06-20T21:46:49.466Z,2.87
2019-06-20T21:49:19.390Z,2.47
2019-06-20T21:51:49.387Z,2.77
2019-06-20T21:54:19.650Z,2.50
2019-06-20T21:56:50.525Z,2.98
2019-06-20T21:59:20.388Z,2.80
2019-06-20T22:01:50.747Z,2.98
2019-06-20T22:04:21.112Z,2.60
2019-06-20T22:06:51.645Z,3.00
2019-06-20T22:09:21.510Z,2.58
2019-06-20T22:11:51.459Z,3.02
2019-06-20T22:14:21.351Z,2.87
2019-06-20T22:16:51.874Z,3.00
2019-06-20T22:19:22.274Z,2.75
2019-06-20T22:21:52.224Z,2.90
2019-06-20T22:24:22.505Z,3.22
2019-06-20T22:26:52.859Z,3.17
2019-06-20T22:29:23.126Z,3.17
2019-06-20T22:31:53.161Z,3.15
2019-06-20T22:34:23.409Z,3.47
2019-06-20T22:36:53.580Z,3.70
2019-06-20T22:39:23.420Z,3.30
2019-06-20T22:41:53.583Z,3.90
2019-06-20T22:44:23.688Z,3.15
2019-06-20T22:46:53.531Z,3.45
2019-06-20T22:49:23.466Z,3.10
2019-06-20T22:51:53.331Z,3.47
2019-06-20T22:54:23.216Z,3.02
2019-06-20T22:56:53.129Z,3.33
2019-06-20T22:59:23.939Z,3.75
2019-06-20T23:01:53.901Z,3.90
2019-06-20T23:04:23.818Z,3.90
2019-06-20T23:06:56.736Z,3.08
2019-06-20T23:09:27.366Z,3.95
2019-06-20T23:11:56.843Z,3.40
2019-06-20T23:14:26.686Z,4.13
2019-06-20T23:16:56.677Z,4.05
2019-06-20T23:19:26.612Z,3.30
2019-06-20T23:21:56.498Z,3.80
2019-06-20T23:24:26.421Z,4.00
2019-06-20T23:26:56.701Z,3.63
2019-06-20T23:29:26.637Z,3.17
2019-06-20T23:31:56.951Z,3.00
2019-06-20T23:34:27.145Z,3.00
2019-06-20T23:37:11.825Z,3.33
2019-06-20T23:39:28.844Z,3.37
2019-06-20T23:41:58.881Z,3.30
2019-06-20T23:44:28.737Z,3.43
2019-06-20T23:46:58.629Z,3.20
2019-06-20T23:49:28.530Z,3.40
2019-06-20T23:52:06.223Z,3.53
2019-06-20T23:54:36.545Z,2.72
2019-06-20T23:57:06.753Z,3.20
2019-06-20T23:59:37.024Z,3.37
